createdAt,value
2019-02-06T00:02:27.278Z,-1.30
2019-02-06T00:04:57.739Z,-1.30
2019-02-06T00:07:28.167Z,-1.30
2019-02-06T00:09:58.720Z,-1.30
2019-02-06T00:12:30.069Z,-1.40
2019-02-06T00:15:00.561Z,-1.40
2019-02-06T00:17:31.226Z,-1.40
2019-02-06T00:20:01.861Z,-1.40
2019-02-06T00:22:32.274Z,-1.40
2019-02-06T00:25:02.821Z,-1.40
2019-02-06T00:27:33.300Z,-1.50
2019-02-06T00:30:05.951Z,-1.50
2019-02-06T00:32:36.496Z,-1.60
2019-02-06T00:35:08.052Z,-1.60
2019-02-06T00:37:38.731Z,-1.60
2019-02-06T00:40:11.270Z,-1.60
2019-02-06T00:42:41.838Z,-1.60
2019-02-06T00:45:14.113Z,-1.60
2019-02-06T00:47:44.673Z,-1.70
2019-02-06T00:50:18.304Z,-1.70
2019-02-06T00:52:48.762Z,-1.70
2019-02-06T00:55:19.374Z,-1.70
2019-02-06T00:57:49.935Z,-1.80
2019-02-06T01:00:23.063Z,-1.80
2019-02-06T01:02:54.487Z,-1.80
2019-02-06T01:05:25.028Z,-1.80
2019-02-06T01:07:55.670Z,-1.80
2019-02-06T01:10:26.308Z,-1.90
2019-02-06T01:12:57.856Z,-1.90
2019-02-06T01:15:28.487Z,-1.90
2019-02-06T01:17:59.422Z,-1.90
2019-02-06T01:20:30.063Z,-2.00
2019-02-06T01:23:00.726Z,-2.00
2019-02-06T01:25:31.368Z,-2.00
2019-02-06T01:28:01.860Z,-2.00
2019-02-06T01:30:34.152Z,-2.10
2019-02-06T01:33:06.500Z,-2.10
2019-02-06T01:35:37.047Z,-2.10
2019-02-06T01:38:07.784Z,-2.20
2019-02-06T01:40:38.790Z,-2.20
2019-02-06T01:43:09.573Z,-2.20
2019-02-06T01:45:40.495Z,-2.20
2019-02-06T01:48:11.123Z,-2.20
2019-02-06T01:50:41.606Z,-2.20
2019-02-06T01:53:12.232Z,-2.20
2019-02-06T01:55:42.698Z,-2.30
2019-02-06T01:58:13.355Z,-2.30
2019-02-06T02:00:43.966Z,-2.30
2019-02-06T02:03:15.420Z,-2.30
2019-02-06T02:05:46.055Z,-2.40
2019-02-06T02:08:16.616Z,-2.40
2019-02-06T02:10:47.220Z,-2.40
2019-02-06T02:13:19.336Z,-2.40
2019-02-06T02:15:49.935Z,-2.40
2019-02-06T02:18:21.080Z,-2.40
2019-02-06T02:20:51.682Z,-2.40
2019-02-06T02:23:22.319Z,-2.40
2019-02-06T02:25:52.960Z,-2.50
2019-02-06T02:28:23.578Z,-2.50
2019-02-06T02:30:55.353Z,-2.60
2019-02-06T02:33:27.099Z,-2.60
2019-02-06T02:35:57.726Z,-2.60
2019-02-06T02:38:28.533Z,-2.60
2019-02-06T02:40:59.137Z,-2.50
2019-02-06T02:43:29.823Z,-2.60
2019-02-06T02:46:00.483Z,-2.60
2019-02-06T02:48:31.344Z,-2.60
2019-02-06T02:51:01.940Z,-2.60
2019-02-06T02:53:32.877Z,-2.60
2019-02-06T02:56:03.539Z,-2.60
2019-02-06T02:58:34.146Z,-2.70
2019-02-06T03:01:06.437Z,-2.70
2019-02-06T03:03:38.708Z,-2.60
2019-02-06T03:06:09.692Z,-2.70
2019-02-06T03:08:40.353Z,-2.60
2019-02-06T03:11:10.979Z,-2.70
2019-02-06T03:13:42.419Z,-2.70
2019-02-06T03:16:12.954Z,-2.80
2019-02-06T03:18:43.513Z,-2.80
2019-02-06T03:21:14.119Z,-2.90
2019-02-06T03:23:44.677Z,-2.90
2019-02-06T03:26:15.316Z,-2.90
2019-02-06T03:28:45.800Z,-2.90
2019-02-06T03:31:16.341Z,-2.90
2019-02-06T03:33:47.220Z,-2.90
2019-02-06T03:36:17.616Z,-2.90
2019-02-06T03:38:48.105Z,-2.90
2019-02-06T03:41:18.953Z,-2.90
2019-02-06T03:43:49.435Z,-2.90
2019-02-06T03:46:20.048Z,-2.90
2019-02-06T03:48:50.623Z,-3.00
2019-02-06T03:51:21.169Z,-3.00
2019-02-06T03:53:51.722Z,-3.10
2019-02-06T03:56:22.168Z,-3.10
2019-02-06T03:58:52.691Z,-3.10
2019-02-06T04:01:23.238Z,-3.20
2019-02-06T04:03:53.803Z,-3.20
2019-02-06T04:06:24.278Z,-3.20
2019-02-06T04:08:54.771Z,-3.20
2019-02-06T04:11:25.180Z,-3.20
2019-02-06T04:13:56.468Z,-3.30
2019-02-06T04:16:27.263Z,-3.30
2019-02-06T04:18:57.791Z,-3.20
2019-02-06T04:21:29.692Z,-3.20
2019-02-06T04:24:00.308Z,-3.30
2019-02-06T04:26:30.711Z,-3.30
2019-02-06T04:29:01.758Z,-3.30
2019-02-06T04:31:32.169Z,-3.30
2019-02-06T04:34:02.733Z,-3.30
2019-02-06T04:36:33.252Z,-3.30
2019-02-06T04:39:05.198Z,-3.30
2019-02-06T04:41:35.790Z,-3.30
2019-02-06T04:44:06.526Z,-3.40
2019-02-06T04:46:37.131Z,-3.40
2019-02-06T04:49:07.791Z,-3.30
2019-02-06T04:51:38.200Z,-3.40
2019-02-06T04:54:08.797Z,-3.40
2019-02-06T04:56:39.657Z,-3.40
2019-02-06T04:59:10.079Z,-3.40
2019-02-06T05:01:40.561Z,-3.40
2019-02-06T05:04:11.974Z,-3.30
2019-02-06T05:06:43.701Z,-3.30
2019-02-06T05:09:14.297Z,-3.30
2019-02-06T05:11:45.691Z,-3.30
2019-02-06T05:14:17.030Z,-3.40
2019-02-06T05:16:47.543Z,-3.40
2019-02-06T05:19:18.432Z,-3.40
2019-02-06T05:21:50.033Z,-3.50
2019-02-06T05:24:20.916Z,-3.50
2019-02-06T05:26:53.180Z,-3.50
2019-02-06T05:29:23.722Z,-3.50
2019-02-06T05:31:56.808Z,-3.50
2019-02-06T05:34:27.472Z,-3.50
2019-02-06T05:36:58.324Z,-3.50
2019-02-06T05:39:28.747Z,-3.50
2019-02-06T05:41:59.320Z,-3.50
2019-02-06T05:44:30.767Z,-3.50
2019-02-06T05:47:01.380Z,-3.50
2019-02-06T05:49:31.947Z,-3.50
2019-02-06T05:52:02.735Z,-3.50
2019-02-06T05:54:33.156Z,-3.50
2019-02-06T05:57:03.788Z,-3.50
2019-02-06T05:59:34.263Z,-3.50
2019-02-06T06:02:05.063Z,-3.60
2019-02-06T06:04:35.554Z,-3.60
2019-02-06T06:07:06.765Z,-3.50
2019-02-06T06:09:37.289Z,-3.50
2019-02-06T06:12:07.806Z,-3.60
2019-02-06T06:14:39.194Z,-3.60
2019-02-06T06:17:09.882Z,-3.50
2019-02-06T06:19:40.764Z,-3.60
2019-02-06T06:22:11.483Z,-3.50
2019-02-06T06:24:41.988Z,-3.40
2019-02-06T06:27:12.515Z,-3.40
2019-02-06T06:29:43.167Z,-3.30
2019-02-06T06:32:13.641Z,-3.10
2019-02-06T06:34:45.086Z,-2.90
2019-02-06T06:37:15.484Z,-2.60
2019-02-06T06:39:46.051Z,-2.50
2019-02-06T06:42:16.687Z,-2.30
2019-02-06T06:44:47.207Z,-2.30
2019-02-06T06:47:17.830Z,-2.10
2019-02-06T06:49:48.353Z,-2.00
2019-02-06T06:52:19.996Z,-1.80
2019-02-06T06:54:50.506Z,-1.50
2019-02-06T06:57:21.136Z,-1.20
2019-02-06T06:59:51.543Z,-0.90
2019-02-06T07:02:22.322Z,-0.50
2019-02-06T07:04:52.863Z,-0.30
2019-02-06T07:07:23.246Z,-0.20
2019-02-06T07:09:53.798Z,-0.20
2019-02-06T07:12:24.331Z,-0.30
2019-02-06T07:14:55.920Z,-0.30
2019-02-06T07:17:26.374Z,-0.10
2019-02-06T07:19:56.865Z,-0.10
2019-02-06T07:22:27.459Z,-0.10
2019-02-06T07:24:58.014Z,-0.10
2019-02-06T07:27:28.512Z,-0.20
2019-02-06T07:30:00.268Z,-0.20
2019-02-06T07:32:30.846Z,-0.10
2019-02-06T07:35:01.283Z,0.00
2019-02-06T07:37:31.741Z,0.20
2019-02-06T07:40:02.322Z,0.40
2019-02-06T07:42:33.030Z,0.50
2019-02-06T07:45:04.721Z,0.60
2019-02-06T07:47:35.248Z,0.90
2019-02-06T07:50:10.280Z,1.30
2019-02-06T07:52:40.811Z,1.50
2019-02-06T07:55:11.701Z,1.70
2019-02-06T07:57:42.301Z,1.80
2019-02-06T08:00:13.028Z,1.90
2019-02-06T08:02:43.651Z,2.00
2019-02-06T08:05:20.779Z,2.20
2019-02-06T08:07:51.883Z,2.40
2019-02-06T08:10:32.123Z,2.50
2019-02-06T08:13:02.914Z,2.70
2019-02-06T08:15:34.598Z,3.00
2019-02-06T08:18:05.934Z,3.30
2019-02-06T08:20:36.925Z,3.80
2019-02-06T08:23:07.812Z,4.30
2019-02-06T08:25:38.388Z,4.50
2019-02-06T08:28:08.912Z,4.60
2019-02-06T08:30:42.378Z,4.70
2019-02-06T08:33:12.897Z,4.80
2019-02-06T08:35:43.627Z,5.10
2019-02-06T08:38:14.136Z,5.40
2019-02-06T08:40:44.642Z,5.80
2019-02-06T08:43:15.155Z,6.10
2019-02-06T08:45:45.640Z,6.60
2019-02-06T08:48:16.155Z,6.80
2019-02-06T08:50:46.695Z,7.10
2019-02-06T08:53:17.285Z,7.30
2019-02-06T08:55:48.333Z,7.00
2019-02-06T08:58:18.860Z,6.60
2019-02-06T09:00:49.810Z,6.60
2019-02-06T09:03:20.424Z,7.00
2019-02-06T09:05:50.975Z,7.50
2019-02-06T09:08:21.495Z,7.70
2019-02-06T09:10:52.118Z,7.60
2019-02-06T09:13:22.500Z,7.20
2019-02-06T09:15:54.230Z,7.00
2019-02-06T09:18:24.848Z,7.10
2019-02-06T09:20:59.160Z,7.00
2019-02-06T09:23:29.745Z,7.30
2019-02-06T09:26:00.558Z,7.60
2019-02-06T09:28:31.489Z,7.90
2019-02-06T09:31:02.003Z,8.20
2019-02-06T09:33:32.480Z,8.30
2019-02-06T09:36:03.095Z,8.40
2019-02-06T09:38:33.528Z,8.60
2019-02-06T09:41:03.967Z,8.80
2019-02-06T09:43:34.401Z,8.80
2019-02-06T09:46:04.964Z,8.90
2019-02-06T09:48:35.466Z,9.00
2019-02-06T09:51:05.947Z,9.20
2019-02-06T09:53:36.435Z,9.50
2019-02-06T09:56:10.166Z,9.90
2019-02-06T09:58:40.705Z,9.70
2019-02-06T10:01:11.461Z,10.00
2019-02-06T10:03:42.026Z,9.50
2019-02-06T10:06:12.766Z,9.20
2019-02-06T10:08:43.279Z,8.70
2019-02-06T10:11:13.820Z,8.90
2019-02-06T10:13:44.273Z,9.10
2019-02-06T10:16:15.657Z,9.40
2019-02-06T10:18:46.313Z,9.30
2019-02-06T10:21:16.829Z,9.20
2019-02-06T10:23:47.653Z,9.10
2019-02-06T10:26:18.096Z,9.50
2019-02-06T10:28:48.683Z,9.70
2019-02-06T10:31:20.517Z,9.60
2019-02-06T10:33:51.147Z,9.60
2019-02-06T10:36:21.667Z,9.50
2019-02-06T10:38:52.201Z,9.30
2019-02-06T10:41:22.628Z,9.40
2019-02-06T10:43:53.044Z,9.60
2019-02-06T10:46:23.602Z,10.00
2019-02-06T10:48:54.153Z,10.30
2019-02-06T10:51:24.941Z,10.90
2019-02-06T10:53:55.578Z,10.70
2019-02-06T10:56:30.229Z,10.60
2019-02-06T10:59:00.760Z,10.30
2019-02-06T11:01:31.356Z,10.50
2019-02-06T11:04:01.918Z,11.00
2019-02-06T11:06:32.488Z,11.00
2019-02-06T11:09:03.041Z,11.40
2019-02-06T11:11:34.430Z,11.40
2019-02-06T11:14:05.382Z,11.10
2019-02-06T11:16:38.085Z,10.80
2019-02-06T11:19:08.614Z,10.80
2019-02-06T11:21:39.229Z,11.10
2019-02-06T11:24:09.823Z,11.00
2019-02-06T11:26:41.409Z,11.20
2019-02-06T11:29:12.332Z,11.40
2019-02-06T11:31:43.018Z,11.60
2019-02-06T11:34:13.550Z,11.60
2019-02-06T11:36:44.063Z,11.70
2019-02-06T11:39:18.440Z,11.80
2019-02-06T11:41:48.996Z,12.00
2019-02-06T11:44:19.926Z,11.90
2019-02-06T11:46:50.466Z,12.00
2019-02-06T11:49:22.705Z,11.80
2019-02-06T11:51:53.574Z,11.90
2019-02-06T11:54:24.115Z,12.30
2019-02-06T11:56:54.700Z,12.60
2019-02-06T11:59:25.218Z,12.70
2019-02-06T12:01:55.698Z,12.70
2019-02-06T12:04:26.090Z,12.80
2019-02-06T12:06:57.142Z,12.60
2019-02-06T12:09:27.720Z,12.90
2019-02-06T12:11:58.660Z,12.60
2019-02-06T12:14:29.201Z,12.60
2019-02-06T12:17:00.383Z,12.60
2019-02-06T12:19:30.952Z,12.60
2019-02-06T12:22:01.477Z,12.60
2019-02-06T12:24:32.748Z,12.70
2019-02-06T12:27:03.321Z,12.80
2019-02-06T12:29:33.806Z,12.50
2019-02-06T12:32:04.660Z,12.20
2019-02-06T12:34:35.454Z,12.10
2019-02-06T12:37:06.646Z,12.20
2019-02-06T12:39:37.349Z,12.40
2019-02-06T12:42:08.271Z,12.50
2019-02-06T12:44:38.728Z,12.50
2019-02-06T12:47:09.314Z,12.70
2019-02-06T12:49:39.789Z,12.70
2019-02-06T12:52:11.085Z,12.40
2019-02-06T12:54:41.572Z,12.30
2019-02-06T12:57:12.403Z,12.30
2019-02-06T12:59:43.665Z,12.20
2019-02-06T13:02:14.235Z,12.20
2019-02-06T13:04:48.348Z,12.00
2019-02-06T13:07:18.894Z,12.10
2019-02-06T13:09:49.925Z,12.30
2019-02-06T13:12:20.585Z,12.50
2019-02-06T13:14:51.005Z,12.20
2019-02-06T13:17:22.198Z,12.30
2019-02-06T13:19:52.626Z,12.30
2019-02-06T13:22:23.638Z,12.30
2019-02-06T13:24:54.130Z,12.30
2019-02-06T13:27:25.707Z,12.20
2019-02-06T13:29:56.327Z,12.00
2019-02-06T13:32:26.807Z,12.10
2019-02-06T13:34:57.439Z,12.00
2019-02-06T13:37:28.834Z,12.30
2019-02-06T13:39:59.411Z,12.50
2019-02-06T13:42:29.886Z,12.30
2019-02-06T13:45:00.347Z,12.50
2019-02-06T13:47:32.076Z,12.90
2019-02-06T13:50:03.068Z,13.20
2019-02-06T13:52:34.385Z,13.30
2019-02-06T13:55:08.189Z,12.60
2019-02-06T13:57:38.838Z,12.50
2019-02-06T14:00:16.159Z,12.90
2019-02-06T14:02:47.813Z,12.80
2019-02-06T14:05:21.663Z,12.80
2019-02-06T14:07:53.196Z,12.90
2019-02-06T14:10:26.994Z,12.70
2019-02-06T14:12:57.862Z,12.60
2019-02-06T14:15:33.258Z,12.70
2019-02-06T14:18:04.981Z,12.50
2019-02-06T14:20:36.078Z,12.20
2019-02-06T14:26:30.359Z,12.20
2019-02-06T14:29:37.758Z,12.10
2019-02-06T14:32:27.579Z,12.30
2019-02-06T14:35:33.616Z,11.80
2019-02-06T14:41:42.098Z,11.60
2019-02-06T14:44:28.816Z,11.50
2019-02-06T14:47:27.775Z,11.20
2019-02-06T14:50:28.779Z,11.30
2019-02-06T14:53:06.837Z,11.50
2019-02-06T14:56:05.625Z,11.30
2019-02-06T14:58:52.219Z,11.30
2019-02-06T15:01:31.861Z,11.10
2019-02-06T15:04:16.021Z,10.90
2019-02-06T15:07:14.854Z,10.90
2019-02-06T15:10:21.293Z,10.90
2019-02-06T15:13:14.050Z,10.70
2019-02-06T15:16:03.392Z,10.50
2019-02-06T15:18:39.219Z,10.40
2019-02-06T15:21:53.345Z,10.20
2019-02-06T15:24:37.443Z,10.20
2019-02-06T15:27:41.619Z,10.00
2019-02-06T15:30:29.097Z,10.00
2019-02-06T15:33:21.385Z,9.80
2019-02-06T15:36:16.644Z,9.80
2019-02-06T15:39:13.735Z,9.60
2019-02-06T15:42:09.337Z,9.30
2019-02-06T15:45:02.037Z,9.10
2019-02-06T15:47:54.716Z,8.80
2019-02-06T15:50:59.609Z,8.80
2019-02-06T15:53:49.219Z,9.00
2019-02-06T15:56:38.854Z,8.90
2019-02-06T15:59:39.912Z,8.70
2019-02-06T16:02:49.653Z,8.70
2019-02-06T16:05:29.276Z,8.50
2019-02-06T16:08:27.973Z,8.30
2019-02-06T16:11:42.010Z,8.20
2019-02-06T16:14:34.359Z,7.90
2019-02-06T16:17:32.386Z,7.70
2019-02-06T16:20:32.475Z,7.50
2019-02-06T16:23:25.189Z,7.30
2019-02-06T16:26:00.304Z,7.30
2019-02-06T16:28:57.700Z,7.20
2019-02-06T16:31:39.770Z,7.00
2019-02-06T16:34:29.986Z,6.80
2019-02-06T16:37:11.894Z,6.70
2019-02-06T16:40:02.034Z,6.60
2019-02-06T16:42:51.509Z,6.50
2019-02-06T16:45:49.554Z,6.50
2019-02-06T16:48:40.421Z,6.40
2019-02-06T16:51:27.305Z,6.30
2019-02-06T16:54:06.592Z,6.20
2019-02-06T16:57:05.956Z,5.80
2019-02-06T17:00:23.075Z,5.80
2019-02-06T17:03:28.787Z,5.80
2019-02-06T17:06:11.570Z,5.60
2019-02-06T17:09:04.790Z,5.50
2019-02-06T17:11:48.772Z,5.50
2019-02-06T17:14:35.641Z,5.40
2019-02-06T17:17:13.461Z,5.10
2019-02-06T17:19:51.078Z,5.10
2019-02-06T17:22:35.217Z,5.10
2019-02-06T17:25:30.876Z,5.00
2019-02-06T17:28:14.072Z,5.00
2019-02-06T17:30:51.618Z,4.90
2019-02-06T17:33:38.313Z,4.80
2019-02-06T17:36:25.158Z,4.70
2019-02-06T17:39:24.384Z,4.60
2019-02-06T17:42:15.745Z,4.50
2019-02-06T17:45:18.015Z,4.50
2019-02-06T17:48:01.741Z,4.30
2019-02-06T17:50:39.485Z,4.30
2019-02-06T17:53:23.628Z,4.20
2019-02-06T17:55:54.154Z,4.10
2019-02-06T17:58:24.771Z,4.10
2019-02-06T18:01:03.741Z,4.00
2019-02-06T18:03:39.073Z,3.80
2019-02-06T18:06:11.723Z,3.70
2019-02-06T18:08:42.390Z,3.60
2019-02-06T18:11:12.986Z,3.60
2019-02-06T18:13:43.544Z,3.60
2019-02-06T18:16:21.028Z,3.40
2019-02-06T18:18:46.421Z,3.30
2019-02-06T18:21:16.894Z,3.30
2019-02-06T18:23:48.277Z,3.40
2019-02-06T18:26:18.876Z,3.30
2019-02-06T18:28:51.119Z,3.30
2019-02-06T18:31:22.572Z,3.20
2019-02-06T18:33:53.050Z,3.10
2019-02-06T18:36:23.581Z,3.10
2019-02-06T18:38:54.200Z,3.00
2019-02-06T18:41:24.729Z,3.00
2019-02-06T18:43:55.583Z,3.00
2019-02-06T18:46:26.206Z,2.90
2019-02-06T18:48:56.874Z,2.80
2019-02-06T18:51:27.607Z,2.70
2019-02-06T18:53:58.337Z,2.70
2019-02-06T18:56:30.608Z,2.60
2019-02-06T18:59:01.241Z,2.60
2019-02-06T19:01:32.000Z,2.40
2019-02-06T19:04:02.734Z,2.40
2019-02-06T19:06:33.378Z,2.30
2019-02-06T19:09:05.555Z,2.20
2019-02-06T19:11:36.152Z,2.20
2019-02-06T19:14:08.303Z,2.10
2019-02-06T19:16:39.289Z,2.10
2019-02-06T19:19:10.105Z,2.10
2019-02-06T19:21:40.759Z,2.00
2019-02-06T19:24:13.404Z,2.10
2019-02-06T19:26:45.625Z,2.00
2019-02-06T19:29:16.381Z,2.00
2019-02-06T19:31:49.426Z,1.90
2019-02-06T19:34:20.609Z,1.90
2019-02-06T19:36:51.420Z,1.90
2019-02-06T19:39:23.578Z,1.90
2019-02-06T19:41:54.296Z,1.80
2019-02-06T19:44:27.238Z,1.80
2019-02-06T19:46:57.901Z,1.80
2019-02-06T19:49:28.519Z,1.80
2019-02-06T19:52:00.601Z,1.80
2019-02-06T19:54:31.640Z,1.70
2019-02-06T19:57:02.198Z,1.60
2019-02-06T19:59:32.905Z,1.50
2019-02-06T20:02:03.373Z,1.40
2019-02-06T20:04:33.886Z,1.40
2019-02-06T20:07:04.623Z,1.40
2019-02-06T20:09:35.240Z,1.40
2019-02-06T20:12:07.510Z,1.40
2019-02-06T20:14:38.000Z,1.40
2019-02-06T20:17:08.716Z,1.30
2019-02-06T20:19:39.946Z,1.20
2019-02-06T20:22:10.677Z,1.20
2019-02-06T20:24:44.989Z,1.10
2019-02-06T20:27:16.372Z,1.00
2019-02-06T20:29:48.960Z,1.00
2019-02-06T20:32:24.561Z,0.90
2019-02-06T20:34:54.009Z,0.90
2019-02-06T20:37:26.335Z,0.90
2019-02-06T20:39:58.892Z,0.90
2019-02-06T20:42:30.690Z,0.80
2019-02-06T20:45:02.753Z,0.80
2019-02-06T20:47:34.449Z,0.70
2019-02-06T20:50:08.398Z,0.60
2019-02-06T20:52:38.895Z,0.60
2019-02-06T20:55:09.629Z,0.60
2019-02-06T20:57:41.262Z,0.60
2019-02-06T21:00:16.823Z,0.50
2019-02-06T21:02:47.532Z,0.50
2019-02-06T21:05:18.655Z,0.50
2019-02-06T21:07:49.408Z,0.50
2019-02-06T21:10:23.627Z,0.50
2019-02-06T21:12:54.688Z,0.40
2019-02-06T21:15:25.410Z,0.40
2019-02-06T21:17:56.063Z,0.40
2019-02-06T21:20:26.960Z,0.30
2019-02-06T21:22:57.454Z,0.30
2019-02-06T21:25:28.499Z,0.30
2019-02-06T21:27:59.180Z,0.20
2019-02-06T21:30:42.421Z,0.10
2019-02-06T21:33:12.915Z,0.20
2019-02-06T21:35:43.621Z,0.10
2019-02-06T21:38:14.135Z,0.10
2019-02-06T21:40:44.650Z,0.00
2019-02-06T21:43:15.135Z,0.00
2019-02-06T21:45:45.807Z,0.00
2019-02-06T21:48:16.301Z,0.00
2019-02-06T21:50:46.805Z,0.00
2019-02-06T21:53:17.322Z,0.00
2019-02-06T21:55:47.915Z,0.00
2019-02-06T21:58:18.573Z,0.00
2019-02-06T22:00:49.268Z,0.00
2019-02-06T22:03:20.099Z,-0.10
2019-02-06T22:05:50.649Z,-0.10
2019-02-06T22:08:21.531Z,-0.10
2019-02-06T22:10:53.009Z,-0.20
2019-02-06T22:13:23.446Z,-0.10
2019-02-06T22:15:54.182Z,-0.10
2019-02-06T22:18:25.423Z,-0.20
2019-02-06T22:20:55.941Z,-0.20
2019-02-06T22:23:26.430Z,-0.20
2019-02-06T22:25:57.737Z,-0.20
2019-02-06T22:28:28.225Z,-0.20
2019-02-06T22:30:58.783Z,-0.30
2019-02-06T22:33:29.263Z,-0.30
2019-02-06T22:35:59.753Z,-0.30
2019-02-06T22:38:30.246Z,-0.30
2019-02-06T22:41:00.819Z,-0.40
2019-02-06T22:43:31.329Z,-0.40
2019-02-06T22:46:01.943Z,-0.50
2019-02-06T22:48:32.558Z,-0.50
2019-02-06T22:51:03.020Z,-0.60
2019-02-06T22:53:33.472Z,-0.60
2019-02-06T22:56:04.353Z,-0.60
2019-02-06T22:58:35.021Z,-0.60
2019-02-06T23:01:13.015Z,-0.70
2019-02-06T23:03:43.740Z,-0.70
2019-02-06T23:06:14.379Z,-0.70
2019-02-06T23:08:45.295Z,-0.70
2019-02-06T23:11:15.886Z,-0.80
2019-02-06T23:13:46.524Z,-0.80
2019-02-06T23:16:17.273Z,-0.90
2019-02-06T23:18:47.900Z,-0.90
2019-02-06T23:21:18.915Z,-0.90
2019-02-06T23:23:49.509Z,-0.90
2019-02-06T23:26:21.003Z,-1.00
2019-02-06T23:28:51.743Z,-1.00
2019-02-06T23:31:22.771Z,-1.10
2019-02-06T23:33:53.466Z,-1.10
2019-02-06T23:36:24.319Z,-1.20
2019-02-06T23:38:54.844Z,-1.20
2019-02-06T23:41:26.008Z,-1.30
2019-02-06T23:43:56.700Z,-1.30
2019-02-06T23:46:27.235Z,-1.30
2019-02-06T23:48:58.473Z,-1.30
2019-02-06T23:51:29.206Z,-1.40
2019-02-06T23:54:01.131Z,-1.40
2019-02-06T23:56:31.977Z,-1.50
2019-02-06T23:59:02.556Z,-1.40
